Aviation Digital Data Service (ADDS)

Output produced by METARs form (1735 UTC 27 May 2017)
found at http://www.aviationweather.gov/adds/metars/
 
TAF SMJP 271600Z 2718/2818 08008KT 9999 SCT030 TX33/2718Z TN23/2810Z 
     PROB30 
     TEMPO 2719/2721 4000 SHRA FEW015CB SCT025 
     BECMG 2723/2800 05004KT CAVOK 
     TEMPO 2809/2811 00000KT 2000 BR SCT002